PWSweather.com
Personal Weather Stations
Station Observations
KMAWOBUR2
West Side, Woburn, MA 01801

West SideWoburn, MA 01801

Lat: 42.458, Lon: -71.1955

Elevation: 160

Station Type: DAVIS/Vantage Pro2

http://pauland.net

High Low Average
Temperature 20.0°F-6.7°C 4.8°F-15.1°C 11.2°F-11.6°C
Dew Point 1.2°F-17.1°C -12.1°F-24.5°C -7.9°F-22.2°C
Winds 7.0 mph 11.3 kmh Calm Calm 2.0 mph WSW3.2 kmh WSW
Wind Gusts 16.0 mph25.7 kmh -- 7.0 mph11.3 kmh
Humidity 59% 33% 41%
Pressure 30.35 in1027.8 mb 30.24 in1024.0 mb -
Precipitation 0.00 in0.0 mm - -
Hour Temp Dew Point Humidity Winds Wind Gusts Pressure Precip Precip Rate Daily Precip Total
12:00 AM 10.2°F-12.1°C -11.9°F-24.4°C 35% 3.0 mph WSW4.8 kmh WSW 8.0 mph12.9 kmh 30.25 in1024.4 mb 0.00 in0.0 mm 0.00 in0.0 mm 0.00 in0.0 mm
12:05 AM 10.0°F-12.2°C -12.1°F-24.5°C 35% 2.0 mph WSW3.2 kmh WSW 7.0 mph11.3 kmh 30.25 in1024.4 mb 0.00 in0.0 mm 0.00 in0.0 mm 0.00 in0.0 mm
12:10 AM 10.0°F-12.2°C -12.1°F-24.5°C 35% 3.0 mph WSW4.8 kmh WSW 8.0 mph12.9 kmh 30.25 in1024.4 mb 0.00 in0.0 mm 0.00 in0.0 mm 0.00 in0.0 mm
12:15 AM 9.9°F-12.3°C -11.7°F-24.3°C 36% 2.0 mph WSW3.2 kmh WSW 8.0 mph12.9 kmh 30.26 in1024.7 mb 0.00 in0.0 mm 0.00 in0.0 mm 0.00 in0.0 mm
12:20 AM 10.0°F-12.2°C -11.6°F-24.2°C 36% 3.0 mph WSW4.8 kmh WSW 8.0 mph12.9 kmh 30.26 in1024.7 mb 0.00 in0.0 mm 0.00 in0.0 mm 0.00 in0.0 mm
12:25 AM 10.0°F-12.2°C -12.1°F-24.5°C 35% 3.0 mph WSW4.8 kmh WSW 10.0 mph16.1 kmh 30.26 in1024.7 mb 0.00 in0.0 mm 0.00 in0.0 mm 0.00 in0.0 mm
12:30 AM 9.9°F-12.3°C -11.7°F-24.3°C 36% 1.0 mph WSW1.6 kmh WSW 5.0 mph8.0 kmh 30.26 in1024.7 mb 0.00 in0.0 mm 0.00 in0.0 mm 0.00 in0.0 mm
12:35 AM 9.9°F-12.3°C -11.7°F-24.3°C 36% 2.0 mph WSW3.2 kmh WSW 5.0 mph8.0 kmh 30.26 in1024.7 mb 0.00 in0.0 mm 0.00 in0.0 mm 0.00 in0.0 mm
12:40 AM 9.7°F-12.4°C -11.8°F-24.3°C 36% 1.0 mph WSW1.6 kmh WSW 5.0 mph8.0 kmh 30.26 in1024.7 mb 0.00 in0.0 mm 0.00 in0.0 mm 0.00 in0.0 mm
12:45 AM 9.7°F-12.4°C -11.3°F-24.1°C 37% 2.0 mph WSW3.2 kmh WSW 7.0 mph11.3 kmh 30.26 in1024.7 mb 0.00 in0.0 mm 0.00 in0.0 mm 0.00 in0.0 mm
12:50 AM 9.5°F-12.5°C -11.5°F-24.2°C 37% 3.0 mph WSW4.8 kmh WSW 10.0 mph16.1 kmh 30.26 in1024.7 mb 0.00 in0.0 mm 0.00 in0.0 mm 0.00 in0.0 mm
12:55 AM 9.5°F-12.5°C -11.5°F-24.2°C 37% 3.0 mph WSW4.8 kmh WSW 8.0 mph12.9 kmh 30.26 in1024.7 mb 0.00 in0.0 mm 0.00 in0.0 mm 0.00 in0.0 mm
01:00 AM 9.5°F-12.5°C -11.5°F-24.2°C 37% 3.0 mph WSW4.8 kmh WSW 10.0 mph16.1 kmh 30.26 in1024.7 mb 0.00 in0.0 mm 0.00 in0.0 mm 0.00 in0.0 mm
01:05 AM 9.7°F-12.4°C -11.3°F-24.1°C 37% 2.0 mph WSW3.2 kmh WSW 8.0 mph12.9 kmh 30.26 in1024.7 mb 0.00 in0.0 mm 0.00 in0.0 mm 0.00 in0.0 mm
01:10 AM 9.5°F-12.5°C -11.5°F-24.2°C 37% 2.0 mph WSW3.2 kmh WSW 7.0 mph11.3 kmh 30.26 in1024.7 mb 0.00 in0.0 mm 0.00 in0.0 mm 0.00 in0.0 mm
01:15 AM 9.5°F-12.5°C -10.9°F-23.8°C 38% 3.0 mph WSW4.8 kmh WSW 8.0 mph12.9 kmh 30.27 in1025.1 mb 0.00 in0.0 mm 0.00 in0.0 mm 0.00 in0.0 mm
01:20 AM 9.5°F-12.5°C -10.9°F-23.8°C 38% 3.0 mph WSW4.8 kmh WSW 9.0 mph14.5 kmh 30.27 in1025.1 mb 0.00 in0.0 mm 0.00 in0.0 mm 0.00 in0.0 mm
01:25 AM 9.3°F-12.6°C -11.1°F-23.9°C 38% 2.0 mph WSW3.2 kmh WSW 8.0 mph12.9 kmh 30.27 in1025.1 mb 0.00 in0.0 mm 0.00 in0.0 mm 0.00 in0.0 mm
01:30 AM 9.3°F-12.6°C -11.1°F-23.9°C 38% 3.0 mph WSW4.8 kmh WSW 7.0 mph11.3 kmh 30.27 in1025.1 mb 0.00 in0.0 mm 0.00 in0.0 mm 0.00 in0.0 mm
01:35 AM 9.2°F-12.7°C -10.7°F-23.7°C 39% 4.0 mph WSW6.4 kmh WSW 10.0 mph16.1 kmh 30.27 in1025.1 mb 0.00 in0.0 mm 0.00 in0.0 mm 0.00 in0.0 mm
01:40 AM 9.2°F-12.7°C -11.2°F-24.0°C 38% 4.0 mph WSW6.4 kmh WSW 8.0 mph12.9 kmh 30.27 in1025.1 mb 0.00 in0.0 mm 0.00 in0.0 mm 0.00 in0.0 mm
01:45 AM 9.2°F-12.7°C -10.2°F-23.4°C 40% 2.0 mph WSW3.2 kmh WSW 5.0 mph8.0 kmh 30.27 in1025.1 mb 0.00 in0.0 mm 0.00 in0.0 mm 0.00 in0.0 mm
01:50 AM 9.0°F-12.8°C -10.9°F-23.8°C 39% 3.0 mph WSW4.8 kmh WSW 9.0 mph14.5 kmh 30.27 in1025.1 mb 0.00 in0.0 mm 0.00 in0.0 mm 0.00 in0.0 mm
01:55 AM 9.0°F-12.8°C -10.9°F-23.8°C 39% 2.0 mph WSW3.2 kmh WSW 10.0 mph16.1 kmh 30.27 in1025.1 mb 0.00 in0.0 mm 0.00 in0.0 mm 0.00 in0.0 mm
02:00 AM 9.0°F-12.8°C -10.9°F-23.8°C 39% 2.0 mph WSW3.2 kmh WSW 5.0 mph8.0 kmh 30.28 in1025.4 mb 0.00 in0.0 mm 0.00 in0.0 mm 0.00 in0.0 mm
02:05 AM 8.8°F-12.9°C -11.0°F-23.9°C 39% 2.0 mph WSW3.2 kmh WSW 7.0 mph11.3 kmh 30.28 in1025.4 mb 0.00 in0.0 mm 0.00 in0.0 mm 0.00 in0.0 mm
02:10 AM 8.8°F-12.9°C -11.0°F-23.9°C 39% 2.0 mph WSW3.2 kmh WSW 7.0 mph11.3 kmh 30.28 in1025.4 mb 0.00 in0.0 mm 0.00 in0.0 mm 0.00 in0.0 mm
02:15 AM 8.6°F-13.0°C -10.7°F-23.7°C 40% 3.0 mph WSW4.8 kmh WSW 7.0 mph11.3 kmh 30.28 in1025.4 mb 0.00 in0.0 mm 0.00 in0.0 mm 0.00 in0.0 mm
02:20 AM 8.6°F-13.0°C -10.7°F-23.7°C 40% 2.0 mph WSW3.2 kmh WSW 7.0 mph11.3 kmh 30.28 in1025.4 mb 0.00 in0.0 mm 0.00 in0.0 mm 0.00 in0.0 mm
02:25 AM 8.4°F-13.1°C -10.9°F-23.8°C 40% 3.0 mph WSW4.8 kmh WSW 5.0 mph8.0 kmh 30.28 in1025.4 mb 0.00 in0.0 mm 0.00 in0.0 mm 0.00 in0.0 mm
02:30 AM 8.4°F-13.1°C -10.9°F-23.8°C 40% 1.0 mph WSW1.6 kmh WSW 4.0 mph6.4 kmh 30.28 in1025.4 mb 0.00 in0.0 mm 0.00 in0.0 mm 0.00 in0.0 mm
02:35 AM 8.4°F-13.1°C -10.9°F-23.8°C 40% 2.0 mph WSW3.2 kmh WSW 5.0 mph8.0 kmh 30.28 in1025.4 mb 0.00 in0.0 mm 0.00 in0.0 mm 0.00 in0.0 mm
02:40 AM 8.4°F-13.1°C -10.9°F-23.8°C 40% 3.0 mph WSW4.8 kmh WSW 9.0 mph14.5 kmh 30.28 in1025.4 mb 0.00 in0.0 mm 0.00 in0.0 mm 0.00 in0.0 mm
02:45 AM 8.4°F-13.1°C -10.9°F-23.8°C 40% 3.0 mph WSW4.8 kmh WSW 7.0 mph11.3 kmh 30.28 in1025.4 mb 0.00 in0.0 mm 0.00 in0.0 mm 0.00 in0.0 mm
02:50 AM 8.4°F-13.1°C -10.9°F-23.8°C 40% 3.0 mph WSW4.8 kmh WSW 7.0 mph11.3 kmh 30.28 in1025.4 mb 0.00 in0.0 mm 0.00 in0.0 mm 0.00 in0.0 mm
02:55 AM 8.6°F-13.0°C -10.7°F-23.7°C 40% 4.0 mph WSW6.4 kmh WSW 9.0 mph14.5 kmh 30.28 in1025.4 mb 0.00 in0.0 mm 0.00 in0.0 mm 0.00 in0.0 mm
03:00 AM 8.6°F-13.0°C -10.7°F-23.7°C 40% 3.0 mph WSW4.8 kmh WSW 11.0 mph17.7 kmh 30.28 in1025.4 mb 0.00 in0.0 mm 0.00 in0.0 mm 0.00 in0.0 mm
03:05 AM 8.8°F-12.9°C -10.5°F-23.6°C 40% 3.0 mph WSW4.8 kmh WSW 8.0 mph12.9 kmh 30.28 in1025.4 mb 0.00 in0.0 mm 0.00 in0.0 mm 0.00 in0.0 mm
03:10 AM 8.8°F-12.9°C -10.5°F-23.6°C 40% 2.0 mph WSW3.2 kmh WSW 7.0 mph11.3 kmh 30.28 in1025.4 mb 0.00 in0.0 mm 0.00 in0.0 mm 0.00 in0.0 mm
03:15 AM 8.8°F-12.9°C -11.0°F-23.9°C 39% 4.0 mph WSW6.4 kmh WSW 11.0 mph17.7 kmh 30.28 in1025.4 mb 0.00 in0.0 mm 0.00 in0.0 mm 0.00 in0.0 mm
03:20 AM 8.8°F-12.9°C -11.0°F-23.9°C 39% 5.0 mph WSW8.0 kmh WSW 12.0 mph19.3 kmh 30.28 in1025.4 mb 0.00 in0.0 mm 0.00 in0.0 mm 0.00 in0.0 mm
03:25 AM 8.8°F-12.9°C -11.0°F-23.9°C 39% 3.0 mph WSW4.8 kmh WSW 8.0 mph12.9 kmh 30.28 in1025.4 mb 0.00 in0.0 mm 0.00 in0.0 mm 0.00 in0.0 mm
03:30 AM 8.8°F-12.9°C -11.0°F-23.9°C 39% 3.0 mph WSW4.8 kmh WSW 11.0 mph17.7 kmh 30.29 in1025.7 mb 0.00 in0.0 mm 0.00 in0.0 mm 0.00 in0.0 mm
03:35 AM 8.6°F-13.0°C -11.2°F-24.0°C 39% 3.0 mph WSW4.8 kmh WSW 8.0 mph12.9 kmh 30.29 in1025.7 mb 0.00 in0.0 mm 0.00 in0.0 mm 0.00 in0.0 mm
03:40 AM 8.6°F-13.0°C -11.2°F-24.0°C 39% 3.0 mph WSW4.8 kmh WSW 8.0 mph12.9 kmh 30.29 in1025.7 mb 0.00 in0.0 mm 0.00 in0.0 mm 0.00 in0.0 mm
03:45 AM 8.6°F-13.0°C -10.7°F-23.7°C 40% 2.0 mph WSW3.2 kmh WSW 9.0 mph14.5 kmh 30.29 in1025.7 mb 0.00 in0.0 mm 0.00 in0.0 mm 0.00 in0.0 mm
03:50 AM 8.6°F-13.0°C -10.7°F-23.7°C 40% 3.0 mph WSW4.8 kmh WSW 10.0 mph16.1 kmh 30.29 in1025.7 mb 0.00 in0.0 mm 0.00 in0.0 mm 0.00 in0.0 mm
03:55 AM 8.6°F-13.0°C -11.2°F-24.0°C 39% 3.0 mph WSW4.8 kmh WSW 10.0 mph16.1 kmh 30.29 in1025.7 mb 0.00 in0.0 mm 0.00 in0.0 mm 0.00 in0.0 mm
04:00 AM 8.6°F-13.0°C -11.2°F-24.0°C 39% 4.0 mph WSW6.4 kmh WSW 10.0 mph16.1 kmh 30.29 in1025.7 mb 0.00 in0.0 mm 0.00 in0.0 mm 0.00 in0.0 mm
04:05 AM 8.6°F-13.0°C -11.2°F-24.0°C 39% 2.0 mph WSW3.2 kmh WSW 8.0 mph12.9 kmh 30.29 in1025.7 mb 0.00 in0.0 mm 0.00 in0.0 mm 0.00 in0.0 mm
04:10 AM 8.4°F-13.1°C -11.4°F-24.1°C 39% 2.0 mph WSW3.2 kmh WSW 8.0 mph12.9 kmh 30.29 in1025.7 mb 0.00 in0.0 mm 0.00 in0.0 mm 0.00 in0.0 mm
04:15 AM 8.4°F-13.1°C -10.9°F-23.8°C 40% 2.0 mph WSW3.2 kmh WSW 9.0 mph14.5 kmh 30.30 in1026.1 mb 0.00 in0.0 mm 0.00 in0.0 mm 0.00 in0.0 mm
04:20 AM 8.4°F-13.1°C -10.9°F-23.8°C 40% 3.0 mph WSW4.8 kmh WSW 9.0 mph14.5 kmh 30.30 in1026.1 mb 0.00 in0.0 mm 0.00 in0.0 mm 0.00 in0.0 mm
04:25 AM 8.4°F-13.1°C -10.9°F-23.8°C 40% 2.0 mph WSW3.2 kmh WSW 7.0 mph11.3 kmh 30.30 in1026.1 mb 0.00 in0.0 mm 0.00 in0.0 mm 0.00 in0.0 mm
04:30 AM 8.4°F-13.1°C -11.4°F-24.1°C 39% 4.0 mph WSW6.4 kmh WSW 9.0 mph14.5 kmh 30.30 in1026.1 mb 0.00 in0.0 mm 0.00 in0.0 mm 0.00 in0.0 mm
04:35 AM 8.4°F-13.1°C -11.4°F-24.1°C 39% 3.0 mph WSW4.8 kmh WSW 8.0 mph12.9 kmh 30.30 in1026.1 mb 0.00 in0.0 mm 0.00 in0.0 mm 0.00 in0.0 mm
04:40 AM 8.3°F-13.2°C -11.0°F-23.9°C 40% 3.0 mph WSW4.8 kmh WSW 9.0 mph14.5 kmh 30.30 in1026.1 mb 0.00 in0.0 mm 0.00 in0.0 mm 0.00 in0.0 mm
04:45 AM 8.3°F-13.2°C -11.0°F-23.9°C 40% 3.0 mph WSW4.8 kmh WSW 10.0 mph16.1 kmh 30.29 in1025.7 mb 0.00 in0.0 mm 0.00 in0.0 mm 0.00 in0.0 mm
04:50 AM 8.3°F-13.2°C -11.5°F-24.2°C 39% 3.0 mph WSW4.8 kmh WSW 8.0 mph12.9 kmh 30.29 in1025.7 mb 0.00 in0.0 mm 0.00 in0.0 mm 0.00 in0.0 mm
04:55 AM 8.3°F-13.2°C -11.0°F-23.9°C 40% 3.0 mph WSW4.8 kmh WSW 5.0 mph8.0 kmh 30.29 in1025.7 mb 0.00 in0.0 mm 0.00 in0.0 mm 0.00 in0.0 mm
05:00 AM 8.1°F-13.3°C -11.2°F-24.0°C 40% 2.0 mph WSW3.2 kmh WSW 10.0 mph16.1 kmh 30.29 in1025.7 mb 0.00 in0.0 mm 0.00 in0.0 mm 0.00 in0.0 mm
05:05 AM 8.1°F-13.3°C -11.2°F-24.0°C 40% 3.0 mph WSW4.8 kmh WSW 10.0 mph16.1 kmh 30.29 in1025.7 mb 0.00 in0.0 mm 0.00 in0.0 mm 0.00 in0.0 mm
05:10 AM 8.1°F-13.3°C -10.7°F-23.7°C 41% 3.0 mph WSW4.8 kmh WSW 9.0 mph14.5 kmh 30.29 in1025.7 mb 0.00 in0.0 mm 0.00 in0.0 mm 0.00 in0.0 mm
05:15 AM 8.1°F-13.3°C -11.2°F-24.0°C 40% 3.0 mph WSW4.8 kmh WSW 9.0 mph14.5 kmh 30.29 in1025.7 mb 0.00 in0.0 mm 0.00 in0.0 mm 0.00 in0.0 mm
05:20 AM 8.1°F-13.3°C -11.2°F-24.0°C 40% 2.0 mph WSW3.2 kmh WSW 8.0 mph12.9 kmh 30.29 in1025.7 mb 0.00 in0.0 mm 0.00 in0.0 mm 0.00 in0.0 mm
05:25 AM 8.1°F-13.3°C -11.2°F-24.0°C 40% 3.0 mph WSW4.8 kmh WSW 10.0 mph16.1 kmh 30.29 in1025.7 mb 0.00 in0.0 mm 0.00 in0.0 mm 0.00 in0.0 mm
05:30 AM 8.1°F-13.3°C -11.2°F-24.0°C 40% 3.0 mph WSW4.8 kmh WSW 8.0 mph12.9 kmh 30.28 in1025.4 mb 0.00 in0.0 mm 0.00 in0.0 mm 0.00 in0.0 mm
05:35 AM 8.1°F-13.3°C -11.2°F-24.0°C 40% 3.0 mph WSW4.8 kmh WSW 9.0 mph14.5 kmh 30.28 in1025.4 mb 0.00 in0.0 mm 0.00 in0.0 mm 0.00 in0.0 mm
05:40 AM 8.1°F-13.3°C -11.2°F-24.0°C 40% 3.0 mph WSW4.8 kmh WSW 9.0 mph14.5 kmh 30.28 in1025.4 mb 0.00 in0.0 mm 0.00 in0.0 mm 0.00 in0.0 mm
05:45 AM 7.9°F-13.4°C -10.4°F-23.6°C 42% 3.0 mph WSW4.8 kmh WSW 9.0 mph14.5 kmh 30.28 in1025.4 mb 0.00 in0.0 mm 0.00 in0.0 mm 0.00 in0.0 mm
05:50 AM 7.9°F-13.4°C -10.9°F-23.8°C 41% 2.0 mph WSW3.2 kmh WSW 8.0 mph12.9 kmh 30.28 in1025.4 mb 0.00 in0.0 mm 0.00 in0.0 mm 0.00 in0.0 mm
05:55 AM 7.7°F-13.5°C -11.0°F-23.9°C 41% 2.0 mph WSW3.2 kmh WSW 8.0 mph12.9 kmh 30.28 in1025.4 mb 0.00 in0.0 mm 0.00 in0.0 mm 0.00 in0.0 mm
06:00 AM 7.7°F-13.5°C -11.0°F-23.9°C 41% 3.0 mph WSW4.8 kmh WSW 8.0 mph12.9 kmh 30.28 in1025.4 mb 0.00 in0.0 mm 0.00 in0.0 mm 0.00 in0.0 mm
06:05 AM 7.7°F-13.5°C -11.0°F-23.9°C 41% 3.0 mph WSW4.8 kmh WSW 10.0 mph16.1 kmh 30.28 in1025.4 mb 0.00 in0.0 mm 0.00 in0.0 mm 0.00 in0.0 mm
06:10 AM 7.7°F-13.5°C -10.6°F-23.7°C 42% 2.0 mph WSW3.2 kmh WSW 10.0 mph16.1 kmh 30.28 in1025.4 mb 0.00 in0.0 mm 0.00 in0.0 mm 0.00 in0.0 mm
06:15 AM 7.7°F-13.5°C -10.6°F-23.7°C 42% 2.0 mph WSW3.2 kmh WSW 8.0 mph12.9 kmh 30.28 in1025.4 mb 0.00 in0.0 mm 0.00 in0.0 mm 0.00 in0.0 mm
06:20 AM 7.6°F-13.6°C -10.6°F-23.7°C 42% 2.0 mph WSW3.2 kmh WSW 7.0 mph11.3 kmh 30.28 in1025.4 mb 0.00 in0.0 mm 0.00 in0.0 mm 0.00 in0.0 mm
06:25 AM 7.6°F-13.6°C -10.6°F-23.7°C 42% 1.0 mph WSW1.6 kmh WSW 5.0 mph8.0 kmh 30.28 in1025.4 mb 0.00 in0.0 mm 0.00 in0.0 mm 0.00 in0.0 mm
06:30 AM 7.4°F-13.7°C -10.8°F-23.8°C 42% 2.0 mph WSW3.2 kmh WSW 5.0 mph8.0 kmh 30.29 in1025.7 mb 0.00 in0.0 mm 0.00 in0.0 mm 0.00 in0.0 mm
06:35 AM 7.4°F-13.7°C -10.8°F-23.8°C 42% 2.0 mph WSW3.2 kmh WSW 7.0 mph11.3 kmh 30.29 in1025.7 mb 0.00 in0.0 mm 0.00 in0.0 mm 0.00 in0.0 mm
06:40 AM 7.4°F-13.7°C -10.8°F-23.8°C 42% 2.0 mph WSW3.2 kmh WSW 7.0 mph11.3 kmh 30.29 in1025.7 mb 0.00 in0.0 mm 0.00 in0.0 mm 0.00 in0.0 mm
06:45 AM 7.4°F-13.7°C -10.8°F-23.8°C 42% 2.0 mph WSW3.2 kmh WSW 8.0 mph12.9 kmh 30.30 in1026.1 mb 0.00 in0.0 mm 0.00 in0.0 mm 0.00 in0.0 mm
06:50 AM 7.4°F-13.7°C -10.8°F-23.8°C 42% 2.0 mph WSW3.2 kmh WSW 8.0 mph12.9 kmh 30.30 in1026.1 mb 0.00 in0.0 mm 0.00 in0.0 mm 0.00 in0.0 mm
06:55 AM 7.4°F-13.7°C -10.4°F-23.6°C 43% 3.0 mph WSW4.8 kmh WSW 8.0 mph12.9 kmh 30.30 in1026.1 mb 0.00 in0.0 mm 0.00 in0.0 mm 0.00 in0.0 mm
07:00 AM 7.2°F-13.8°C -10.5°F-23.6°C 43% 2.0 mph WSW3.2 kmh WSW 5.0 mph8.0 kmh 30.30 in1026.1 mb 0.00 in0.0 mm 0.00 in0.0 mm 0.00 in0.0 mm
07:05 AM 7.2°F-13.8°C -10.5°F-23.6°C 43% 2.0 mph WSW3.2 kmh WSW 7.0 mph11.3 kmh 30.30 in1026.1 mb 0.00 in0.0 mm 0.00 in0.0 mm 0.00 in0.0 mm
07:10 AM 7.0°F-13.9°C -10.7°F-23.7°C 43% 2.0 mph WSW3.2 kmh WSW 5.0 mph8.0 kmh 30.30 in1026.1 mb 0.00 in0.0 mm 0.00 in0.0 mm 0.00 in0.0 mm
07:15 AM 7.0°F-13.9°C -10.7°F-23.7°C 43% 2.0 mph WSW3.2 kmh WSW 4.0 mph6.4 kmh 30.30 in1026.1 mb 0.00 in0.0 mm 0.00 in0.0 mm 0.00 in0.0 mm
07:20 AM 6.9°F-13.9°C -10.4°F-23.6°C 44% 1.0 mph WSW1.6 kmh WSW 3.0 mph4.8 kmh 30.30 in1026.1 mb 0.00 in0.0 mm 0.00 in0.0 mm 0.00 in0.0 mm
07:25 AM 6.9°F-13.9°C -10.4°F-23.6°C 44% 1.0 mph WSW1.6 kmh WSW 7.0 mph11.3 kmh 30.30 in1026.1 mb 0.00 in0.0 mm 0.00 in0.0 mm 0.00 in0.0 mm
07:30 AM 6.9°F-13.9°C -10.4°F-23.6°C 44% 2.0 mph WSW3.2 kmh WSW 5.0 mph8.0 kmh 30.29 in1025.7 mb 0.00 in0.0 mm 0.00 in0.0 mm 0.00 in0.0 mm
07:35 AM 6.7°F-14.1°C -10.5°F-23.6°C 44% 2.0 mph WSW3.2 kmh WSW 7.0 mph11.3 kmh 30.29 in1025.7 mb 0.00 in0.0 mm 0.00 in0.0 mm 0.00 in0.0 mm
07:40 AM 6.7°F-14.1°C -10.5°F-23.6°C 44% 2.0 mph WSW3.2 kmh WSW 7.0 mph11.3 kmh 30.29 in1025.7 mb 0.00 in0.0 mm 0.00 in0.0 mm 0.00 in0.0 mm
07:45 AM 6.7°F-14.1°C -10.5°F-23.6°C 44% 2.0 mph WSW3.2 kmh WSW 4.0 mph6.4 kmh 30.29 in1025.7 mb 0.00 in0.0 mm 0.00 in0.0 mm 0.00 in0.0 mm
07:50 AM 6.7°F-14.1°C -10.5°F-23.6°C 44% 2.0 mph WSW3.2 kmh WSW 7.0 mph11.3 kmh 30.29 in1025.7 mb 0.00 in0.0 mm 0.00 in0.0 mm 0.00 in0.0 mm
07:55 AM 6.7°F-14.1°C -10.5°F-23.6°C 44% 1.0 mph WSW1.6 kmh WSW 5.0 mph8.0 kmh 30.29 in1025.7 mb 0.00 in0.0 mm 0.00 in0.0 mm 0.00 in0.0 mm
08:00 AM 6.7°F-14.1°C -10.1°F-23.4°C 45% 3.0 mph WSW4.8 kmh WSW 10.0 mph16.1 kmh 30.29 in1025.7 mb 0.00 in0.0 mm 0.00 in0.0 mm 0.00 in0.0 mm
08:05 AM 6.7°F-14.1°C -10.5°F-23.6°C 44% 2.0 mph WSW3.2 kmh WSW 5.0 mph8.0 kmh 30.29 in1025.7 mb 0.00 in0.0 mm 0.00 in0.0 mm 0.00 in0.0 mm
08:10 AM 6.5°F-14.2°C -10.7°F-23.7°C 44% 1.0 mph WSW1.6 kmh WSW 7.0 mph11.3 kmh 30.29 in1025.7 mb 0.00 in0.0 mm 0.00 in0.0 mm 0.00 in0.0 mm
08:15 AM 6.5°F-14.2°C -10.3°F-23.5°C 45% 1.0 mph WSW1.6 kmh WSW 4.0 mph6.4 kmh 30.29 in1025.7 mb 0.00 in0.0 mm 0.00 in0.0 mm 0.00 in0.0 mm
08:20 AM 6.3°F-14.3°C -10.4°F-23.6°C 45% 2.0 mph WSW3.2 kmh WSW 8.0 mph12.9 kmh 30.29 in1025.7 mb 0.00 in0.0 mm 0.00 in0.0 mm 0.00 in0.0 mm
08:25 AM 6.3°F-14.3°C -10.4°F-23.6°C 45% 1.0 mph WSW1.6 kmh WSW 5.0 mph8.0 kmh 30.29 in1025.7 mb 0.00 in0.0 mm 0.00 in0.0 mm 0.00 in0.0 mm
08:30 AM 6.1°F-14.4°C -10.6°F-23.7°C 45% 2.0 mph WSW3.2 kmh WSW 5.0 mph8.0 kmh 30.29 in1025.7 mb 0.00 in0.0 mm 0.00 in0.0 mm 0.00 in0.0 mm
08:35 AM 6.1°F-14.4°C -10.6°F-23.7°C 45% 2.0 mph WSW3.2 kmh WSW 5.0 mph8.0 kmh 30.29 in1025.7 mb 0.00 in0.0 mm 0.00 in0.0 mm 0.00 in0.0 mm
08:40 AM 6.0°F-14.4°C -10.3°F-23.5°C 46% 2.0 mph WSW3.2 kmh WSW 7.0 mph11.3 kmh 30.29 in1025.7 mb 0.00 in0.0 mm 0.00 in0.0 mm 0.00 in0.0 mm
08:45 AM 6.0°F-14.4°C -10.3°F-23.5°C 46% Calm Calm 3.0 mph4.8 kmh 30.30 in1026.1 mb 0.00 in0.0 mm 0.00 in0.0 mm 0.00 in0.0 mm
08:50 AM 6.0°F-14.4°C -10.3°F-23.5°C 46% 1.0 mph WSW1.6 kmh WSW 3.0 mph4.8 kmh 30.30 in1026.1 mb 0.00 in0.0 mm 0.00 in0.0 mm 0.00 in0.0 mm
08:55 AM 5.8°F-14.6°C -10.5°F-23.6°C 46% 2.0 mph WSW3.2 kmh WSW 7.0 mph11.3 kmh 30.30 in1026.1 mb 0.00 in0.0 mm 0.00 in0.0 mm 0.00 in0.0 mm
09:00 AM 5.6°F-14.7°C -10.2°F-23.4°C 47% 1.0 mph WSW1.6 kmh WSW 3.0 mph4.8 kmh 30.30 in1026.1 mb 0.00 in0.0 mm 0.00 in0.0 mm 0.00 in0.0 mm
09:05 AM 5.4°F-14.8°C -10.4°F-23.6°C 47% 1.0 mph WSW1.6 kmh WSW 4.0 mph6.4 kmh 30.30 in1026.1 mb 0.00 in0.0 mm 0.00 in0.0 mm 0.00 in0.0 mm
09:10 AM 5.4°F-14.8°C -10.0°F-23.3°C 48% 2.0 mph WSW3.2 kmh WSW 8.0 mph12.9 kmh 30.30 in1026.1 mb 0.00 in0.0 mm 0.00 in0.0 mm 0.00 in0.0 mm
09:15 AM 5.4°F-14.8°C -10.0°F-23.3°C 48% 2.0 mph WSW3.2 kmh WSW 7.0 mph11.3 kmh 30.30 in1026.1 mb 0.00 in0.0 mm 0.00 in0.0 mm 0.00 in0.0 mm
09:20 AM 5.4°F-14.8°C -10.0°F-23.3°C 48% 2.0 mph WSW3.2 kmh WSW 8.0 mph12.9 kmh 30.30 in1026.1 mb 0.00 in0.0 mm 0.00 in0.0 mm 0.00 in0.0 mm
09:25 AM 5.4°F-14.8°C -10.0°F-23.3°C 48% 1.0 mph WSW1.6 kmh WSW 4.0 mph6.4 kmh 30.30 in1026.1 mb 0.00 in0.0 mm 0.00 in0.0 mm 0.00 in0.0 mm
09:30 AM 5.4°F-14.8°C -10.0°F-23.3°C 48% 2.0 mph WSW3.2 kmh WSW 8.0 mph12.9 kmh 30.30 in1026.1 mb 0.00 in0.0 mm 0.00 in0.0 mm 0.00 in0.0 mm
09:35 AM 5.4°F-14.8°C -10.4°F-23.6°C 47% 2.0 mph WSW3.2 kmh WSW 5.0 mph8.0 kmh 30.30 in1026.1 mb 0.00 in0.0 mm 0.00 in0.0 mm 0.00 in0.0 mm
09:40 AM 5.4°F-14.8°C -10.4°F-23.6°C 47% 1.0 mph WSW1.6 kmh WSW 5.0 mph8.0 kmh 30.30 in1026.1 mb 0.00 in0.0 mm 0.00 in0.0 mm 0.00 in0.0 mm
09:45 AM 5.2°F-14.9°C -10.6°F-23.7°C 47% 1.0 mph WSW1.6 kmh WSW 3.0 mph4.8 kmh 30.30 in1026.1 mb 0.00 in0.0 mm 0.00 in0.0 mm 0.00 in0.0 mm
09:50 AM 5.0°F-15.0°C -10.4°F-23.6°C 48% 2.0 mph WSW3.2 kmh WSW 4.0 mph6.4 kmh 30.30 in1026.1 mb 0.00 in0.0 mm 0.00 in0.0 mm 0.00 in0.0 mm
09:55 AM 5.0°F-15.0°C -10.4°F-23.6°C 48% 1.0 mph WSW1.6 kmh WSW 4.0 mph6.4 kmh 30.30 in1026.1 mb 0.00 in0.0 mm 0.00 in0.0 mm 0.00 in0.0 mm
10:00 AM 5.0°F-15.0°C -10.8°F-23.8°C 47% 2.0 mph WSW3.2 kmh WSW 7.0 mph11.3 kmh 30.30 in1026.1 mb 0.00 in0.0 mm 0.00 in0.0 mm 0.00 in0.0 mm
10:05 AM 5.0°F-15.0°C -10.8°F-23.8°C 47% 2.0 mph WSW3.2 kmh WSW 5.0 mph8.0 kmh 30.30 in1026.1 mb 0.00 in0.0 mm 0.00 in0.0 mm 0.00 in0.0 mm
10:10 AM 5.0°F-15.0°C -10.8°F-23.8°C 47% 1.0 mph WSW1.6 kmh WSW 3.0 mph4.8 kmh 30.30 in1026.1 mb 0.00 in0.0 mm 0.00 in0.0 mm 0.00 in0.0 mm
10:15 AM 5.0°F-15.0°C -10.8°F-23.8°C 47% 1.0 mph WSW1.6 kmh WSW 5.0 mph8.0 kmh 30.30 in1026.1 mb 0.00 in0.0 mm 0.00 in0.0 mm 0.00 in0.0 mm
10:20 AM 5.2°F-14.9°C -10.6°F-23.7°C 47% 1.0 mph WSW1.6 kmh WSW 5.0 mph8.0 kmh 30.30 in1026.1 mb 0.00 in0.0 mm 0.00 in0.0 mm 0.00 in0.0 mm
10:25 AM 5.0°F-15.0°C -10.8°F-23.8°C 47% 1.0 mph WSW1.6 kmh WSW 4.0 mph6.4 kmh 30.30 in1026.1 mb 0.00 in0.0 mm 0.00 in0.0 mm 0.00 in0.0 mm
10:30 AM 5.0°F-15.0°C -10.8°F-23.8°C 47% 1.0 mph WSW1.6 kmh WSW 5.0 mph8.0 kmh 30.31 in1026.4 mb 0.00 in0.0 mm 0.00 in0.0 mm 0.00 in0.0 mm
10:35 AM 5.0°F-15.0°C -10.8°F-23.8°C 47% 1.0 mph WSW1.6 kmh WSW 3.0 mph4.8 kmh 30.31 in1026.4 mb 0.00 in0.0 mm 0.00 in0.0 mm 0.00 in0.0 mm
10:40 AM 4.8°F-15.1°C -10.5°F-23.6°C 48% 2.0 mph WSW3.2 kmh WSW 4.0 mph6.4 kmh 30.31 in1026.4 mb 0.00 in0.0 mm 0.00 in0.0 mm 0.00 in0.0 mm
10:45 AM 4.8°F-15.1°C -10.5°F-23.6°C 48% 1.0 mph WSW1.6 kmh WSW 4.0 mph6.4 kmh 30.31 in1026.4 mb 0.00 in0.0 mm 0.00 in0.0 mm 0.00 in0.0 mm
10:50 AM 4.8°F-15.1°C -10.5°F-23.6°C 48% 1.0 mph WSW1.6 kmh WSW 4.0 mph6.4 kmh 30.31 in1026.4 mb 0.00 in0.0 mm 0.00 in0.0 mm 0.00 in0.0 mm
10:55 AM 4.8°F-15.1°C -10.5°F-23.6°C 48% 2.0 mph WSW3.2 kmh WSW 7.0 mph11.3 kmh 30.31 in1026.4 mb 0.00 in0.0 mm 0.00 in0.0 mm 0.00 in0.0 mm
11:00 AM 4.8°F-15.1°C -10.5°F-23.6°C 48% 3.0 mph WSW4.8 kmh WSW 7.0 mph11.3 kmh 30.31 in1026.4 mb 0.00 in0.0 mm 0.00 in0.0 mm 0.00 in0.0 mm
11:05 AM 4.8°F-15.1°C -10.5°F-23.6°C 48% 2.0 mph WSW3.2 kmh WSW 7.0 mph11.3 kmh 30.31 in1026.4 mb 0.00 in0.0 mm 0.00 in0.0 mm 0.00 in0.0 mm
11:10 AM 4.8°F-15.1°C -10.5°F-23.6°C 48% 2.0 mph WSW3.2 kmh WSW 5.0 mph8.0 kmh 30.31 in1026.4 mb 0.00 in0.0 mm 0.00 in0.0 mm 0.00 in0.0 mm
11:15 AM 4.8°F-15.1°C -10.5°F-23.6°C 48% 3.0 mph WSW4.8 kmh WSW 11.0 mph17.7 kmh 30.31 in1026.4 mb 0.00 in0.0 mm 0.00 in0.0 mm 0.00 in0.0 mm
11:20 AM 4.8°F-15.1°C -10.5°F-23.6°C 48% 3.0 mph WSW4.8 kmh WSW 8.0 mph12.9 kmh 30.31 in1026.4 mb 0.00 in0.0 mm 0.00 in0.0 mm 0.00 in0.0 mm
11:25 AM 4.8°F-15.1°C -10.5°F-23.6°C 48% 3.0 mph WSW4.8 kmh WSW 7.0 mph11.3 kmh 30.31 in1026.4 mb 0.00 in0.0 mm 0.00 in0.0 mm 0.00 in0.0 mm
11:30 AM 4.8°F-15.1°C -10.5°F-23.6°C 48% 2.0 mph WSW3.2 kmh WSW 7.0 mph11.3 kmh 30.32 in1026.8 mb 0.00 in0.0 mm 0.00 in0.0 mm 0.00 in0.0 mm
11:35 AM 4.8°F-15.1°C -10.5°F-23.6°C 48% 3.0 mph WSW4.8 kmh WSW 5.0 mph8.0 kmh 30.32 in1026.8 mb 0.00 in0.0 mm 0.00 in0.0 mm 0.00 in0.0 mm
11:40 AM 4.8°F-15.1°C -11.0°F-23.9°C 47% 2.0 mph WSW3.2 kmh WSW 5.0 mph8.0 kmh 30.32 in1026.8 mb 0.00 in0.0 mm 0.00 in0.0 mm 0.00 in0.0 mm
11:45 AM 4.8°F-15.1°C -11.0°F-23.9°C 47% 2.0 mph WSW3.2 kmh WSW 8.0 mph12.9 kmh 30.32 in1026.8 mb 0.00 in0.0 mm 0.00 in0.0 mm 0.00 in0.0 mm
11:50 AM 4.8°F-15.1°C -11.0°F-23.9°C 47% 3.0 mph WSW4.8 kmh WSW 7.0 mph11.3 kmh 30.32 in1026.8 mb 0.00 in0.0 mm 0.00 in0.0 mm 0.00 in0.0 mm
11:55 AM 4.8°F-15.1°C -11.0°F-23.9°C 47% 3.0 mph WSW4.8 kmh WSW 7.0 mph11.3 kmh 30.32 in1026.8 mb 0.00 in0.0 mm 0.00 in0.0 mm 0.00 in0.0 mm
12:00 PM 4.8°F-15.1°C -11.0°F-23.9°C 47% 1.0 mph WSW1.6 kmh WSW 7.0 mph11.3 kmh 30.32 in1026.8 mb 0.00 in0.0 mm 0.00 in0.0 mm 0.00 in0.0 mm
12:05 PM 4.8°F-15.1°C -11.4°F-24.1°C 46% 2.0 mph WSW3.2 kmh WSW 8.0 mph12.9 kmh 30.32 in1026.8 mb 0.00 in0.0 mm 0.00 in0.0 mm 0.00 in0.0 mm
12:10 PM 5.0°F-15.0°C -11.2°F-24.0°C 46% 2.0 mph WSW3.2 kmh WSW 11.0 mph17.7 kmh 30.32 in1026.8 mb 0.00 in0.0 mm 0.00 in0.0 mm 0.00 in0.0 mm
12:15 PM 5.0°F-15.0°C -11.2°F-24.0°C 46% 3.0 mph WSW4.8 kmh WSW 8.0 mph12.9 kmh 30.33 in1027.1 mb 0.00 in0.0 mm 0.00 in0.0 mm 0.00 in0.0 mm
12:20 PM 5.4°F-14.8°C -10.8°F-23.8°C 46% 4.0 mph WSW6.4 kmh WSW 11.0 mph17.7 kmh 30.33 in1027.1 mb 0.00 in0.0 mm 0.00 in0.0 mm 0.00 in0.0 mm
12:25 PM 5.6°F-14.7°C -10.7°F-23.7°C 46% 2.0 mph WSW3.2 kmh WSW 9.0 mph14.5 kmh 30.33 in1027.1 mb 0.00 in0.0 mm 0.00 in0.0 mm 0.00 in0.0 mm
12:30 PM 5.8°F-14.6°C -10.9°F-23.8°C 45% 4.0 mph WSW6.4 kmh WSW 8.0 mph12.9 kmh 30.33 in1027.1 mb 0.00 in0.0 mm 0.00 in0.0 mm 0.00 in0.0 mm
12:35 PM 6.0°F-14.4°C -11.2°F-24.0°C 44% 3.0 mph WSW4.8 kmh WSW 8.0 mph12.9 kmh 30.33 in1027.1 mb 0.00 in0.0 mm 0.00 in0.0 mm 0.00 in0.0 mm
12:40 PM 6.1°F-14.4°C -11.1°F-23.9°C 44% 2.0 mph WSW3.2 kmh WSW 4.0 mph6.4 kmh 30.33 in1027.1 mb 0.00 in0.0 mm 0.00 in0.0 mm 0.00 in0.0 mm
12:45 PM 6.3°F-14.3°C -10.9°F-23.8°C 44% 2.0 mph WSW3.2 kmh WSW 7.0 mph11.3 kmh 30.34 in1027.4 mb 0.00 in0.0 mm 0.00 in0.0 mm 0.00 in0.0 mm
12:50 PM 6.5°F-14.2°C -11.2°F-24.0°C 43% 3.0 mph WSW4.8 kmh WSW 9.0 mph14.5 kmh 30.34 in1027.4 mb 0.00 in0.0 mm 0.00 in0.0 mm 0.00 in0.0 mm
12:55 PM 6.9°F-13.9°C -10.8°F-23.8°C 43% 2.0 mph WSW3.2 kmh WSW 8.0 mph12.9 kmh 30.34 in1027.4 mb 0.00 in0.0 mm 0.00 in0.0 mm 0.00 in0.0 mm
01:00 PM 7.4°F-13.7°C -10.4°F-23.6°C 43% 3.0 mph WSW4.8 kmh WSW 8.0 mph12.9 kmh 30.35 in1027.8 mb 0.00 in0.0 mm 0.00 in0.0 mm 0.00 in0.0 mm
01:05 PM 7.6°F-13.6°C -10.6°F-23.7°C 42% 5.0 mph WSW8.0 kmh WSW 10.0 mph16.1 kmh 30.35 in1027.8 mb 0.00 in0.0 mm 0.00 in0.0 mm 0.00 in0.0 mm
01:10 PM 7.9°F-13.4°C -10.4°F-23.6°C 42% 3.0 mph WSW4.8 kmh WSW 9.0 mph14.5 kmh 30.35 in1027.8 mb 0.00 in0.0 mm 0.00 in0.0 mm 0.00 in0.0 mm
01:15 PM 7.9°F-13.4°C -10.4°F-23.6°C 42% 2.0 mph W3.2 kmh W 5.0 mph8.0 kmh 30.35 in1027.8 mb 0.00 in0.0 mm 0.00 in0.0 mm 0.00 in0.0 mm
01:20 PM 8.1°F-13.3°C -10.7°F-23.7°C 41% 2.0 mph WSW3.2 kmh WSW 7.0 mph11.3 kmh 30.35 in1027.8 mb 0.00 in0.0 mm 0.00 in0.0 mm 0.00 in0.0 mm
01:25 PM 8.1°F-13.3°C -10.7°F-23.7°C 41% 3.0 mph WNW4.8 kmh WNW 6.0 mph9.7 kmh 30.35 in1027.8 mb 0.00 in0.0 mm 0.00 in0.0 mm 0.00 in0.0 mm
01:30 PM 8.3°F-13.2°C -10.0°F-23.3°C 42% 5.0 mph WSW8.0 kmh WSW 12.0 mph19.3 kmh 30.35 in1027.8 mb 0.00 in0.0 mm 0.00 in0.0 mm 0.00 in0.0 mm
01:35 PM 8.4°F-13.1°C -10.4°F-23.6°C 41% 4.0 mph WSW6.4 kmh WSW 12.0 mph19.3 kmh 30.35 in1027.8 mb 0.00 in0.0 mm 0.00 in0.0 mm 0.00 in0.0 mm
01:40 PM 8.8°F-12.9°C -9.6°F-23.1°C 42% 5.0 mph W8.0 kmh W 9.0 mph14.5 kmh 30.35 in1027.8 mb 0.00 in0.0 mm 0.00 in0.0 mm 0.00 in0.0 mm
01:45 PM 8.8°F-12.9°C -10.0°F-23.3°C 41% 3.0 mph SSW4.8 kmh SSW 9.0 mph14.5 kmh 30.35 in1027.8 mb 0.00 in0.0 mm 0.00 in0.0 mm 0.00 in0.0 mm
01:50 PM 9.2°F-12.7°C -9.7°F-23.2°C 41% 3.0 mph W4.8 kmh W 14.0 mph22.5 kmh 30.35 in1027.8 mb 0.00 in0.0 mm 0.00 in0.0 mm 0.00 in0.0 mm
01:55 PM 9.5°F-12.5°C -9.9°F-23.3°C 40% 3.0 mph WSW4.8 kmh WSW 9.0 mph14.5 kmh 30.35 in1027.8 mb 0.00 in0.0 mm 0.00 in0.0 mm 0.00 in0.0 mm
02:00 PM 9.9°F-12.3°C -9.0°F-22.8°C 41% 3.0 mph W4.8 kmh W 8.0 mph12.9 kmh 30.35 in1027.8 mb 0.00 in0.0 mm 0.00 in0.0 mm 0.00 in0.0 mm
02:05 PM 10.0°F-12.2°C -9.4°F-23.0°C 40% 5.0 mph WSW8.0 kmh WSW 14.0 mph22.5 kmh 30.35 in1027.8 mb 0.00 in0.0 mm 0.00 in0.0 mm 0.00 in0.0 mm
02:10 PM 10.0°F-12.2°C -9.4°F-23.0°C 40% 5.0 mph WSW8.0 kmh WSW 9.0 mph14.5 kmh 30.35 in1027.8 mb 0.00 in0.0 mm 0.00 in0.0 mm 0.00 in0.0 mm
02:15 PM 10.0°F-12.2°C -9.4°F-23.0°C 40% 4.0 mph W6.4 kmh W 10.0 mph16.1 kmh 30.35 in1027.8 mb 0.00 in0.0 mm 0.00 in0.0 mm 0.00 in0.0 mm
02:20 PM 10.4°F-12.0°C -9.1°F-22.8°C 40% 5.0 mph WSW8.0 kmh WSW 12.0 mph19.3 kmh 30.35 in1027.8 mb 0.00 in0.0 mm 0.00 in0.0 mm 0.00 in0.0 mm
02:25 PM 10.5°F-11.9°C -9.0°F-22.8°C 40% 7.0 mph W11.3 kmh W 13.0 mph20.9 kmh 30.35 in1027.8 mb 0.00 in0.0 mm 0.00 in0.0 mm 0.00 in0.0 mm
02:30 PM 10.9°F-11.7°C -8.6°F-22.6°C 40% 5.0 mph SW8.0 kmh SW 16.0 mph25.7 kmh 30.34 in1027.4 mb 0.00 in0.0 mm 0.00 in0.0 mm 0.00 in0.0 mm
02:35 PM 11.1°F-11.6°C -8.5°F-22.5°C 40% 5.0 mph W8.0 kmh W 16.0 mph25.7 kmh 30.34 in1027.4 mb 0.00 in0.0 mm 0.00 in0.0 mm 0.00 in0.0 mm
02:40 PM 11.2°F-11.6°C -8.4°F-22.4°C 40% 3.0 mph WSW4.8 kmh WSW 8.0 mph12.9 kmh 30.34 in1027.4 mb 0.00 in0.0 mm 0.00 in0.0 mm 0.00 in0.0 mm
02:45 PM 11.6°F-11.3°C -8.5°F-22.5°C 39% 3.0 mph WSW4.8 kmh WSW 11.0 mph17.7 kmh 30.34 in1027.4 mb 0.00 in0.0 mm 0.00 in0.0 mm 0.00 in0.0 mm
02:50 PM 11.7°F-11.3°C -7.9°F-22.2°C 40% 5.0 mph W8.0 kmh W 10.0 mph16.1 kmh 30.34 in1027.4 mb 0.00 in0.0 mm 0.00 in0.0 mm 0.00 in0.0 mm
02:55 PM 11.9°F-11.2°C -7.7°F-22.1°C 40% 5.0 mph W8.0 kmh W 11.0 mph17.7 kmh 30.34 in1027.4 mb 0.00 in0.0 mm 0.00 in0.0 mm 0.00 in0.0 mm
03:00 PM 12.4°F-10.9°C -7.8°F-22.1°C 39% 5.0 mph WNW8.0 kmh WNW 14.0 mph22.5 kmh 30.35 in1027.8 mb 0.00 in0.0 mm 0.00 in0.0 mm 0.00 in0.0 mm
03:05 PM 12.8°F-10.7°C -6.9°F-21.6°C 40% 3.0 mph NW4.8 kmh NW 9.0 mph14.5 kmh 30.35 in1027.8 mb 0.00 in0.0 mm 0.00 in0.0 mm 0.00 in0.0 mm
03:10 PM 13.1°F-10.5°C -6.6°F-21.4°C 40% 3.0 mph SW4.8 kmh SW 9.0 mph14.5 kmh 30.35 in1027.8 mb 0.00 in0.0 mm 0.00 in0.0 mm 0.00 in0.0 mm
03:15 PM 13.5°F-10.3°C -6.3°F-21.3°C 40% 3.0 mph SSW4.8 kmh SSW 5.0 mph8.0 kmh 30.35 in1027.8 mb 0.00 in0.0 mm 0.00 in0.0 mm 0.00 in0.0 mm
03:20 PM 14.0°F-10.0°C -5.8°F-21.0°C 40% 3.0 mph W4.8 kmh W 8.0 mph12.9 kmh 30.35 in1027.8 mb 0.00 in0.0 mm 0.00 in0.0 mm 0.00 in0.0 mm
03:25 PM 14.4°F-9.8°C -5.5°F-20.8°C 40% 2.0 mph SW3.2 kmh SW 8.0 mph12.9 kmh 30.35 in1027.8 mb 0.00 in0.0 mm 0.00 in0.0 mm 0.00 in0.0 mm
03:30 PM 14.4°F-9.8°C -6.0°F-21.1°C 39% 5.0 mph W8.0 kmh W 10.0 mph16.1 kmh 30.35 in1027.8 mb 0.00 in0.0 mm 0.00 in0.0 mm 0.00 in0.0 mm
03:35 PM 14.4°F-9.8°C -6.5°F-21.4°C 38% 3.0 mph NW4.8 kmh NW 15.0 mph24.1 kmh 30.35 in1027.8 mb 0.00 in0.0 mm 0.00 in0.0 mm 0.00 in0.0 mm
03:40 PM 14.4°F-9.8°C -6.0°F-21.1°C 39% 2.0 mph NNW3.2 kmh NNW 8.0 mph12.9 kmh 30.35 in1027.8 mb 0.00 in0.0 mm 0.00 in0.0 mm 0.00 in0.0 mm
03:45 PM 14.3°F-9.8°C -5.6°F-20.9°C 40% 3.0 mph W4.8 kmh W 10.0 mph16.1 kmh 30.34 in1027.4 mb 0.00 in0.0 mm 0.00 in0.0 mm 0.00 in0.0 mm
03:50 PM 14.4°F-9.8°C -5.5°F-20.8°C 40% 4.0 mph NNW6.4 kmh NNW 7.0 mph11.3 kmh 30.34 in1027.4 mb 0.00 in0.0 mm 0.00 in0.0 mm 0.00 in0.0 mm
03:55 PM 14.8°F-9.6°C -5.1°F-20.6°C 40% 3.0 mph 4.8 kmh 7.0 mph11.3 kmh 30.34 in1027.4 mb 0.00 in0.0 mm 0.00 in0.0 mm 0.00 in0.0 mm
04:00 PM 14.9°F-9.5°C -5.5°F-20.8°C 39% 3.0 mph NNW4.8 kmh NNW 8.0 mph12.9 kmh 30.34 in1027.4 mb 0.00 in0.0 mm 0.00 in0.0 mm 0.00 in0.0 mm
04:05 PM 15.4°F-9.2°C -5.1°F-20.6°C 39% 4.0 mph WSW6.4 kmh WSW 10.0 mph16.1 kmh 30.34 in1027.4 mb 0.00 in0.0 mm 0.00 in0.0 mm 0.00 in0.0 mm
04:10 PM 15.4°F-9.2°C -5.6°F-20.9°C 38% 4.0 mph WNW6.4 kmh WNW 10.0 mph16.1 kmh 30.34 in1027.4 mb 0.00 in0.0 mm 0.00 in0.0 mm 0.00 in0.0 mm
04:15 PM 15.6°F-9.1°C -5.4°F-20.8°C 38% 3.0 mph NNW4.8 kmh NNW 10.0 mph16.1 kmh 30.32 in1026.8 mb 0.00 in0.0 mm 0.00 in0.0 mm 0.00 in0.0 mm
04:20 PM 16.1°F-8.8°C -5.0°F-20.6°C 38% 3.0 mph WSW4.8 kmh WSW 8.0 mph12.9 kmh 30.32 in1026.8 mb 0.00 in0.0 mm 0.00 in0.0 mm 0.00 in0.0 mm
04:25 PM 16.5°F-8.6°C -5.2°F-20.7°C 37% 4.0 mph W6.4 kmh W 9.0 mph14.5 kmh 30.32 in1026.8 mb 0.00 in0.0 mm 0.00 in0.0 mm 0.00 in0.0 mm
04:30 PM 16.4°F-8.7°C -4.7°F-20.4°C 38% 3.0 mph W4.8 kmh W 9.0 mph14.5 kmh 30.32 in1026.8 mb 0.00 in0.0 mm 0.00 in0.0 mm 0.00 in0.0 mm
04:35 PM 16.4°F-8.7°C -4.7°F-20.4°C 38% 2.0 mph W3.2 kmh W 9.0 mph14.5 kmh 30.32 in1026.8 mb 0.00 in0.0 mm 0.00 in0.0 mm 0.00 in0.0 mm
04:40 PM 16.2°F-8.8°C -4.9°F-20.5°C 38% 4.0 mph NW6.4 kmh NW 13.0 mph20.9 kmh 30.32 in1026.8 mb 0.00 in0.0 mm 0.00 in0.0 mm 0.00 in0.0 mm
04:45 PM 16.2°F-8.8°C -4.9°F-20.5°C 38% 3.0 mph W4.8 kmh W 8.0 mph12.9 kmh 30.31 in1026.4 mb 0.00 in0.0 mm 0.00 in0.0 mm 0.00 in0.0 mm
04:50 PM 16.2°F-8.8°C -5.4°F-20.8°C 37% 6.0 mph NNW9.7 kmh NNW 13.0 mph20.9 kmh 30.31 in1026.4 mb 0.00 in0.0 mm 0.00 in0.0 mm 0.00 in0.0 mm
04:55 PM 16.4°F-8.7°C -4.2°F-20.1°C 39% 4.0 mph NW6.4 kmh NW 11.0 mph17.7 kmh 30.31 in1026.4 mb 0.00 in0.0 mm 0.00 in0.0 mm 0.00 in0.0 mm
05:00 PM 16.2°F-8.8°C -5.4°F-20.8°C 37% 5.0 mph WSW8.0 kmh WSW 12.0 mph19.3 kmh 30.30 in1026.1 mb 0.00 in0.0 mm 0.00 in0.0 mm 0.00 in0.0 mm
05:05 PM 16.2°F-8.8°C -4.4°F-20.2°C 39% 3.0 mph W4.8 kmh W 11.0 mph17.7 kmh 30.30 in1026.1 mb 0.00 in0.0 mm 0.00 in0.0 mm 0.00 in0.0 mm
05:10 PM 16.7°F-8.5°C -4.4°F-20.2°C 38% 3.0 mph WSW4.8 kmh WSW 7.0 mph11.3 kmh 30.30 in1026.1 mb 0.00 in0.0 mm 0.00 in0.0 mm 0.00 in0.0 mm
05:15 PM 17.2°F-8.2°C -4.0°F-20.0°C 38% 4.0 mph W6.4 kmh W 9.0 mph14.5 kmh 30.29 in1025.7 mb 0.00 in0.0 mm 0.00 in0.0 mm 0.00 in0.0 mm
05:20 PM 17.2°F-8.2°C -4.5°F-20.3°C 37% 3.0 mph NNW4.8 kmh NNW 8.0 mph12.9 kmh 30.29 in1025.7 mb 0.00 in0.0 mm 0.00 in0.0 mm 0.00 in0.0 mm
05:25 PM 17.2°F-8.2°C -4.5°F-20.3°C 37% 3.0 mph WSW4.8 kmh WSW 9.0 mph14.5 kmh 30.29 in1025.7 mb 0.00 in0.0 mm 0.00 in0.0 mm 0.00 in0.0 mm
05:30 PM 17.2°F-8.2°C -5.1°F-20.6°C 36% 6.0 mph W9.7 kmh W 14.0 mph22.5 kmh 30.29 in1025.7 mb 0.00 in0.0 mm 0.00 in0.0 mm 0.00 in0.0 mm
05:35 PM 17.5°F-8.1°C -4.3°F-20.2°C 37% 3.0 mph W4.8 kmh W 7.0 mph11.3 kmh 30.29 in1025.7 mb 0.00 in0.0 mm 0.00 in0.0 mm 0.00 in0.0 mm
05:40 PM 17.8°F-7.9°C -4.6°F-20.3°C 36% 4.0 mph NW6.4 kmh NW 10.0 mph16.1 kmh 30.29 in1025.7 mb 0.00 in0.0 mm 0.00 in0.0 mm 0.00 in0.0 mm
05:45 PM 17.5°F-8.1°C -4.3°F-20.2°C 37% 5.0 mph NW8.0 kmh NW 9.0 mph14.5 kmh 30.28 in1025.4 mb 0.00 in0.0 mm 0.00 in0.0 mm 0.00 in0.0 mm
05:50 PM 17.7°F-7.9°C -4.1°F-20.1°C 37% 2.0 mph NW3.2 kmh NW 7.0 mph11.3 kmh 30.28 in1025.4 mb 0.00 in0.0 mm 0.00 in0.0 mm 0.00 in0.0 mm
05:55 PM 17.8°F-7.9°C -4.0°F-20.0°C 37% 5.0 mph WNW8.0 kmh WNW 11.0 mph17.7 kmh 30.28 in1025.4 mb 0.00 in0.0 mm 0.00 in0.0 mm 0.00 in0.0 mm
06:00 PM 17.8°F-7.9°C -4.6°F-20.3°C 36% 3.0 mph W4.8 kmh W 9.0 mph14.5 kmh 30.28 in1025.4 mb 0.00 in0.0 mm 0.00 in0.0 mm 0.00 in0.0 mm
06:05 PM 18.0°F-7.8°C -3.8°F-19.9°C 37% 2.0 mph NW3.2 kmh NW 7.0 mph11.3 kmh 30.28 in1025.4 mb 0.00 in0.0 mm 0.00 in0.0 mm 0.00 in0.0 mm
06:10 PM 18.0°F-7.8°C -3.8°F-19.9°C 37% 3.0 mph NW4.8 kmh NW 9.0 mph14.5 kmh 30.28 in1025.4 mb 0.00 in0.0 mm 0.00 in0.0 mm 0.00 in0.0 mm
06:15 PM 18.0°F-7.8°C -3.8°F-19.9°C 37% 2.0 mph NW3.2 kmh NW 7.0 mph11.3 kmh 30.27 in1025.1 mb 0.00 in0.0 mm 0.00 in0.0 mm 0.00 in0.0 mm
06:20 PM 18.4°F-7.6°C -4.6°F-20.3°C 35% 5.0 mph W8.0 kmh W 10.0 mph16.1 kmh 30.27 in1025.1 mb 0.00 in0.0 mm 0.00 in0.0 mm 0.00 in0.0 mm
06:25 PM 18.6°F-7.4°C -4.4°F-20.2°C 35% 4.0 mph W6.4 kmh W 8.0 mph12.9 kmh 30.27 in1025.1 mb 0.00 in0.0 mm 0.00 in0.0 mm 0.00 in0.0 mm
06:30 PM 18.9°F-7.3°C -4.2°F-20.1°C 35% 5.0 mph WNW8.0 kmh WNW 12.0 mph19.3 kmh 30.26 in1024.7 mb 0.00 in0.0 mm 0.00 in0.0 mm 0.00 in0.0 mm
06:35 PM 19.1°F-7.2°C -3.4°F-19.7°C 36% 3.0 mph WSW4.8 kmh WSW 10.0 mph16.1 kmh 30.26 in1024.7 mb 0.00 in0.0 mm 0.00 in0.0 mm 0.00 in0.0 mm
06:40 PM 19.1°F-7.2°C -4.6°F-20.3°C 34% 4.0 mph WNW6.4 kmh WNW 12.0 mph19.3 kmh 30.26 in1024.7 mb 0.00 in0.0 mm 0.00 in0.0 mm 0.00 in0.0 mm
06:45 PM 19.2°F-7.1°C -3.3°F-19.6°C 36% 3.0 mph ENE4.8 kmh ENE 10.0 mph16.1 kmh 30.26 in1024.7 mb 0.00 in0.0 mm 0.00 in0.0 mm 0.00 in0.0 mm
06:50 PM 19.5°F-6.9°C -4.2°F-20.1°C 34% 4.0 mph W6.4 kmh W 8.0 mph12.9 kmh 30.26 in1024.7 mb 0.00 in0.0 mm 0.00 in0.0 mm 0.00 in0.0 mm
06:55 PM 19.7°F-6.8°C -4.1°F-20.1°C 34% 4.0 mph WNW6.4 kmh WNW 10.0 mph16.1 kmh 30.26 in1024.7 mb 0.00 in0.0 mm 0.00 in0.0 mm 0.00 in0.0 mm
07:00 PM 19.5°F-6.9°C -3.6°F-19.8°C 35% 3.0 mph W4.8 kmh W 8.0 mph12.9 kmh 30.26 in1024.7 mb 0.00 in0.0 mm 0.00 in0.0 mm 0.00 in0.0 mm
07:05 PM 19.4°F-7.0°C -4.3°F-20.2°C 34% 3.0 mph WNW4.8 kmh WNW 10.0 mph16.1 kmh 30.26 in1024.7 mb 0.00 in0.0 mm 0.00 in0.0 mm 0.00 in0.0 mm
07:10 PM 19.4°F-7.0°C -4.3°F-20.2°C 34% 4.0 mph WSW6.4 kmh WSW 10.0 mph16.1 kmh 30.26 in1024.7 mb 0.00 in0.0 mm 0.00 in0.0 mm 0.00 in0.0 mm
07:15 PM 19.4°F-7.0°C -4.3°F-20.2°C 34% 5.0 mph WSW8.0 kmh WSW 11.0 mph17.7 kmh 30.25 in1024.4 mb 0.00 in0.0 mm 0.00 in0.0 mm 0.00 in0.0 mm
07:20 PM 19.5°F-6.9°C -3.6°F-19.8°C 35% 2.0 mph WSW3.2 kmh WSW 5.0 mph8.0 kmh 30.25 in1024.4 mb 0.00 in0.0 mm 0.00 in0.0 mm 0.00 in0.0 mm
07:25 PM 19.7°F-6.8°C -4.1°F-20.1°C 34% 2.0 mph NW3.2 kmh NW 6.0 mph9.7 kmh 30.25 in1024.4 mb 0.00 in0.0 mm 0.00 in0.0 mm 0.00 in0.0 mm
07:30 PM 19.9°F-6.7°C -3.9°F-19.9°C 34% 3.0 mph NNW4.8 kmh NNW 7.0 mph11.3 kmh 30.25 in1024.4 mb 0.00 in0.0 mm 0.00 in0.0 mm 0.00 in0.0 mm
07:35 PM 19.9°F-6.7°C -3.3°F-19.6°C 35% 2.0 mph WNW3.2 kmh WNW 8.0 mph12.9 kmh 30.25 in1024.4 mb 0.00 in0.0 mm 0.00 in0.0 mm 0.00 in0.0 mm
07:40 PM 20.0°F-6.7°C -3.8°F-19.9°C 34% 4.0 mph W6.4 kmh W 9.0 mph14.5 kmh 30.25 in1024.4 mb 0.00 in0.0 mm 0.00 in0.0 mm 0.00 in0.0 mm
07:45 PM 19.9°F-6.7°C -4.5°F-20.3°C 33% 5.0 mph WSW8.0 kmh WSW 12.0 mph19.3 kmh 30.25 in1024.4 mb 0.00 in0.0 mm 0.00 in0.0 mm 0.00 in0.0 mm
07:50 PM 19.7°F-6.8°C -4.1°F-20.1°C 34% 4.0 mph W6.4 kmh W 8.0 mph12.9 kmh 30.25 in1024.4 mb 0.00 in0.0 mm 0.00 in0.0 mm 0.00 in0.0 mm
07:55 PM 19.5°F-6.9°C -4.2°F-20.1°C 34% 3.0 mph WSW4.8 kmh WSW 7.0 mph11.3 kmh 30.25 in1024.4 mb 0.00 in0.0 mm 0.00 in0.0 mm 0.00 in0.0 mm
08:00 PM 19.4°F-7.0°C -3.1°F-19.5°C 36% 3.0 mph WSW4.8 kmh WSW 10.0 mph16.1 kmh 30.25 in1024.4 mb 0.00 in0.0 mm 0.00 in0.0 mm 0.00 in0.0 mm
08:05 PM 19.4°F-7.0°C -4.3°F-20.2°C 34% 1.0 mph WSW1.6 kmh WSW 4.0 mph6.4 kmh 30.25 in1024.4 mb 0.00 in0.0 mm 0.00 in0.0 mm 0.00 in0.0 mm
08:10 PM 19.5°F-6.9°C -3.6°F-19.8°C 35% 2.0 mph WSW3.2 kmh WSW 7.0 mph11.3 kmh 30.25 in1024.4 mb 0.00 in0.0 mm 0.00 in0.0 mm 0.00 in0.0 mm
08:15 PM 19.5°F-6.9°C -4.2°F-20.1°C 34% 2.0 mph SW3.2 kmh SW 6.0 mph9.7 kmh 30.25 in1024.4 mb 0.00 in0.0 mm 0.00 in0.0 mm 0.00 in0.0 mm
08:20 PM 19.7°F-6.8°C -3.5°F-19.7°C 35% 3.0 mph WNW4.8 kmh WNW 8.0 mph12.9 kmh 30.25 in1024.4 mb 0.00 in0.0 mm 0.00 in0.0 mm 0.00 in0.0 mm
08:25 PM 19.9°F-6.7°C -3.9°F-19.9°C 34% 2.0 mph WNW3.2 kmh WNW 6.0 mph9.7 kmh 30.25 in1024.4 mb 0.00 in0.0 mm 0.00 in0.0 mm 0.00 in0.0 mm
08:30 PM 19.9°F-6.7°C -3.3°F-19.6°C 35% 2.0 mph WNW3.2 kmh WNW 8.0 mph12.9 kmh 30.25 in1024.4 mb 0.00 in0.0 mm 0.00 in0.0 mm 0.00 in0.0 mm
08:35 PM 19.9°F-6.7°C -3.9°F-19.9°C 34% 3.0 mph WNW4.8 kmh WNW 7.0 mph11.3 kmh 30.25 in1024.4 mb 0.00 in0.0 mm 0.00 in0.0 mm 0.00 in0.0 mm
08:40 PM 19.7°F-6.8°C -4.1°F-20.1°C 34% 3.0 mph WNW4.8 kmh WNW 8.0 mph12.9 kmh 30.25 in1024.4 mb 0.00 in0.0 mm 0.00 in0.0 mm 0.00 in0.0 mm
08:45 PM 19.7°F-6.8°C -4.1°F-20.1°C 34% 1.0 mph WNW1.6 kmh WNW 9.0 mph14.5 kmh 30.24 in1024.0 mb 0.00 in0.0 mm 0.00 in0.0 mm 0.00 in0.0 mm
08:50 PM 19.5°F-6.9°C -3.1°F-19.5°C 36% 2.0 mph WSW3.2 kmh WSW 8.0 mph12.9 kmh 30.24 in1024.0 mb 0.00 in0.0 mm 0.00 in0.0 mm 0.00 in0.0 mm
08:55 PM 19.5°F-6.9°C -3.6°F-19.8°C 35% 3.0 mph 4.8 kmh 5.0 mph8.0 kmh 30.24 in1024.0 mb 0.00 in0.0 mm 0.00 in0.0 mm 0.00 in0.0 mm
09:00 PM 19.4°F-7.0°C -3.1°F-19.5°C 36% 2.0 mph SW3.2 kmh SW 7.0 mph11.3 kmh 30.25 in1024.4 mb 0.00 in0.0 mm 0.00 in0.0 mm 0.00 in0.0 mm
09:05 PM 19.4°F-7.0°C -3.1°F-19.5°C 36% 1.0 mph WNW1.6 kmh WNW 6.0 mph9.7 kmh 30.25 in1024.4 mb 0.00 in0.0 mm 0.00 in0.0 mm 0.00 in0.0 mm
09:10 PM 19.4°F-7.0°C -3.1°F-19.5°C 36% 1.0 mph SW1.6 kmh SW 5.0 mph8.0 kmh 30.25 in1024.4 mb 0.00 in0.0 mm 0.00 in0.0 mm 0.00 in0.0 mm
09:15 PM 19.5°F-6.9°C -1.9°F-18.8°C 38% 1.0 mph SW1.6 kmh SW 4.0 mph6.4 kmh 30.25 in1024.4 mb 0.00 in0.0 mm 0.00 in0.0 mm 0.00 in0.0 mm
09:20 PM 19.5°F-6.9°C -2.5°F-19.2°C 37% Calm Calm 5.0 mph8.0 kmh 30.25 in1024.4 mb 0.00 in0.0 mm 0.00 in0.0 mm 0.00 in0.0 mm
09:25 PM 19.4°F-7.0°C -2.6°F-19.2°C 37% 1.0 mph SE1.6 kmh SE 3.0 mph4.8 kmh 30.25 in1024.4 mb 0.00 in0.0 mm 0.00 in0.0 mm 0.00 in0.0 mm
09:30 PM 19.4°F-7.0°C -2.6°F-19.2°C 37% 2.0 mph WSW3.2 kmh WSW 6.0 mph9.7 kmh 30.24 in1024.0 mb 0.00 in0.0 mm 0.00 in0.0 mm 0.00 in0.0 mm
09:35 PM 19.2°F-7.1°C -2.8°F-19.3°C 37% 2.0 mph W3.2 kmh W 10.0 mph16.1 kmh 30.24 in1024.0 mb 0.00 in0.0 mm 0.00 in0.0 mm 0.00 in0.0 mm
09:40 PM 19.1°F-7.2°C -2.3°F-19.1°C 38% 2.0 mph W3.2 kmh W 5.0 mph8.0 kmh 30.24 in1024.0 mb 0.00 in0.0 mm 0.00 in0.0 mm 0.00 in0.0 mm
09:45 PM 18.9°F-7.3°C -2.5°F-19.2°C 38% 3.0 mph WNW4.8 kmh WNW 8.0 mph12.9 kmh 30.25 in1024.4 mb 0.00 in0.0 mm 0.00 in0.0 mm 0.00 in0.0 mm
09:50 PM 18.8°F-7.3°C -2.0°F-18.9°C 39% 3.0 mph WSW4.8 kmh WSW 7.0 mph11.3 kmh 30.25 in1024.4 mb 0.00 in0.0 mm 0.00 in0.0 mm 0.00 in0.0 mm
09:55 PM 18.6°F-7.4°C -2.2°F-19.0°C 39% 2.0 mph W3.2 kmh W 6.0 mph9.7 kmh 30.25 in1024.4 mb 0.00 in0.0 mm 0.00 in0.0 mm 0.00 in0.0 mm
10:00 PM 18.4°F-7.6°C -2.4°F-19.1°C 39% 1.0 mph W1.6 kmh W 5.0 mph8.0 kmh 30.25 in1024.4 mb 0.00 in0.0 mm 0.00 in0.0 mm 0.00 in0.0 mm
10:05 PM 18.1°F-7.7°C -2.1°F-18.9°C 40% 1.0 mph WSW1.6 kmh WSW 4.0 mph6.4 kmh 30.25 in1024.4 mb 0.00 in0.0 mm 0.00 in0.0 mm 0.00 in0.0 mm
10:10 PM 18.0°F-7.8°C -2.2°F-19.0°C 40% 1.0 mph WSW1.6 kmh WSW 7.0 mph11.3 kmh 30.25 in1024.4 mb 0.00 in0.0 mm 0.00 in0.0 mm 0.00 in0.0 mm
10:15 PM 17.8°F-7.9°C -2.4°F-19.1°C 40% Calm Calm -- 30.25 in1024.4 mb 0.00 in0.0 mm 0.00 in0.0 mm 0.00 in0.0 mm
10:20 PM 17.7°F-7.9°C -3.0°F-19.4°C 39% Calm Calm 1.0 mph1.6 kmh 30.25 in1024.4 mb 0.00 in0.0 mm 0.00 in0.0 mm 0.00 in0.0 mm
10:25 PM 17.3°F-8.2°C -2.8°F-19.3°C 40% Calm Calm 1.0 mph1.6 kmh 30.25 in1024.4 mb 0.00 in0.0 mm 0.00 in0.0 mm 0.00 in0.0 mm
10:30 PM 17.0°F-8.3°C -0.2°F-17.9°C 46% Calm Calm 2.0 mph3.2 kmh 30.26 in1024.7 mb 0.00 in0.0 mm 0.00 in0.0 mm 0.00 in0.0 mm
10:35 PM 16.5°F-8.6°C -0.6°F-18.1°C 46% Calm Calm -- 30.26 in1024.7 mb 0.00 in0.0 mm 0.00 in0.0 mm 0.00 in0.0 mm
10:40 PM 16.1°F-8.8°C -0.1°F-17.8°C 48% Calm Calm 1.0 mph1.6 kmh 30.26 in1024.7 mb 0.00 in0.0 mm 0.00 in0.0 mm 0.00 in0.0 mm
10:45 PM 15.7°F-9.1°C 0.4°F-17.6°C 50% Calm Calm 2.0 mph3.2 kmh 30.25 in1024.4 mb 0.00 in0.0 mm 0.00 in0.0 mm 0.00 in0.0 mm
10:50 PM 15.2°F-9.3°C 0.8°F-17.3°C 52% Calm Calm -- 30.25 in1024.4 mb 0.00 in0.0 mm 0.00 in0.0 mm 0.00 in0.0 mm
10:55 PM 14.9°F-9.5°C 0.5°F-17.5°C 52% Calm Calm 2.0 mph3.2 kmh 30.25 in1024.4 mb 0.00 in0.0 mm 0.00 in0.0 mm 0.00 in0.0 mm
11:00 PM 14.6°F-9.7°C 0.6°F-17.4°C 53% Calm Calm -- 30.27 in1025.1 mb 0.00 in0.0 mm 0.00 in0.0 mm 0.00 in0.0 mm
11:05 PM 14.1°F-9.9°C 0.9°F-17.3°C 55% Calm Calm -- 30.27 in1025.1 mb 0.00 in0.0 mm 0.00 in0.0 mm 0.00 in0.0 mm
11:10 PM 14.0°F-10.0°C 1.2°F-17.1°C 56% Calm Calm -- 30.27 in1025.1 mb 0.00 in0.0 mm 0.00 in0.0 mm 0.00 in0.0 mm
11:15 PM 13.8°F-10.1°C 1.0°F-17.2°C 56% Calm Calm -- 30.27 in1025.1 mb 0.00 in0.0 mm 0.00 in0.0 mm 0.00 in0.0 mm
11:20 PM 13.6°F-10.2°C 0.9°F-17.3°C 56% Calm Calm -- 30.27 in1025.1 mb 0.00 in0.0 mm 0.00 in0.0 mm 0.00 in0.0 mm
11:25 PM 13.3°F-10.4°C 0.9°F-17.3°C 57% Calm Calm -- 30.27 in1025.1 mb 0.00 in0.0 mm 0.00 in0.0 mm 0.00 in0.0 mm
11:30 PM 13.1°F-10.5°C 0.8°F-17.3°C 57% Calm Calm -- 30.27 in1025.1 mb 0.00 in0.0 mm 0.00 in0.0 mm 0.00 in0.0 mm
11:35 PM 12.9°F-10.6°C 0.9°F-17.3°C 58% Calm Calm -- 30.27 in1025.1 mb 0.00 in0.0 mm 0.00 in0.0 mm 0.00 in0.0 mm
11:40 PM 12.6°F-10.8°C 0.7°F-17.4°C 58% Calm Calm -- 30.27 in1025.1 mb 0.00 in0.0 mm 0.00 in0.0 mm 0.00 in0.0 mm
11:45 PM 12.4°F-10.9°C 0.8°F-17.3°C 59% Calm Calm -- 30.27 in1025.1 mb 0.00 in0.0 mm 0.00 in0.0 mm 0.00 in0.0 mm
11:50 PM 12.3°F-10.9°C 0.7°F-17.4°C 59% Calm Calm -- 30.27 in1025.1 mb 0.00 in0.0 mm 0.00 in0.0 mm 0.00 in0.0 mm
11:55 PM 11.9°F-11.2°C 0.4°F-17.6°C 59% Calm Calm -- 30.27 in1025.1 mb 0.00 in0.0 mm 0.00 in0.0 mm 0.00 in0.0 mm